createdAt,value
2022-10-15T00:01:57.212Z,36.55
2022-10-15T00:04:44.165Z,35.25
2022-10-15T00:07:24.362Z,38.53
2022-10-15T00:10:11.365Z,40.92
2022-10-15T00:12:44.243Z,42.13
2022-10-15T00:15:31.152Z,35.25
2022-10-15T00:18:07.249Z,40.80
2022-10-15T00:20:54.166Z,45.70
2022-10-15T00:23:27.244Z,49.88
2022-10-15T00:26:19.171Z,48.30
2022-10-15T00:28:53.287Z,41.78
2022-10-15T00:31:40.190Z,43.38
2022-10-15T00:34:46.161Z,38.00
2022-10-15T00:37:40.178Z,51.42
2022-10-15T00:40:28.165Z,44.63
2022-10-15T00:43:08.157Z,43.08
2022-10-15T00:46:02.176Z,46.38
2022-10-15T00:48:57.238Z,39.08
2022-10-15T00:51:49.188Z,40.33
2022-10-15T00:54:30.178Z,39.80
2022-10-15T00:57:25.192Z,38.28
2022-10-15T01:00:16.169Z,38.15
2022-10-15T01:02:51.232Z,40.13
2022-10-15T01:05:39.181Z,41.35
2022-10-15T01:08:12.242Z,37.30
2022-10-15T01:11:11.230Z,38.17
2022-10-15T01:14:01.190Z,38.60
2022-10-15T01:17:29.218Z,36.55
2022-10-15T01:20:30.188Z,40.08
2022-10-15T01:23:35.194Z,35.03
2022-10-15T01:26:33.253Z,35.45
2022-10-15T01:29:55.215Z,39.28
2022-10-15T01:32:36.271Z,36.55
2022-10-15T01:35:55.204Z,37.75
2022-10-15T01:38:57.183Z,34.83
2022-10-15T01:42:06.210Z,40.53
2022-10-15T01:45:16.197Z,40.63
2022-10-15T01:48:08.179Z,34.45
2022-10-15T01:50:58.212Z,34.25
2022-10-15T01:53:47.200Z,31.98
2022-10-15T01:56:27.269Z,31.77
2022-10-15T01:59:16.198Z,30.95
2022-10-15T02:01:50.293Z,33.47
2022-10-15T02:04:38.209Z,34.65
2022-10-15T02:07:21.204Z,33.63
2022-10-15T02:10:11.216Z,28.33
2022-10-15T02:13:12.225Z,31.35
2022-10-15T02:16:17.295Z,36.22
2022-10-15T02:19:22.208Z,33.55
2022-10-15T02:22:02.283Z,36.33
2022-10-15T02:25:04.209Z,38.58
2022-10-15T02:27:46.224Z,33.13
2022-10-15T02:30:41.217Z,33.20
2022-10-15T02:33:38.221Z,31.58
2022-10-15T02:36:33.216Z,30.48
2022-10-15T02:39:34.208Z,31.17
2022-10-15T02:42:24.462Z,34.47
2022-10-15T02:45:05.222Z,32.25
2022-10-15T02:47:52.240Z,37.47
2022-10-15T02:50:25.294Z,32.53
2022-10-15T02:53:13.223Z,33.13
2022-10-15T02:55:53.225Z,31.27
2022-10-15T02:58:47.234Z,32.72
2022-10-15T03:01:41.232Z,30.73
2022-10-15T03:04:28.230Z,34.75
2022-10-15T03:07:01.322Z,36.05
2022-10-15T03:09:48.242Z,29.40
2022-10-15T03:12:30.234Z,32.22
2022-10-15T03:15:17.251Z,31.60
2022-10-15T03:17:50.315Z,30.60
2022-10-15T03:20:37.261Z,33.25
2022-10-15T03:23:10.314Z,33.60
2022-10-15T03:25:57.227Z,31.50
2022-10-15T03:28:30.373Z,31.80
2022-10-15T03:31:17.241Z,29.70
2022-10-15T03:33:57.259Z,28.92
2022-10-15T03:36:51.246Z,31.10
2022-10-15T03:39:38.261Z,30.60
2022-10-15T03:42:11.322Z,31.17
2022-10-15T03:44:58.248Z,28.75
2022-10-15T03:47:31.331Z,27.75
2022-10-15T03:50:18.303Z,29.55
2022-10-15T03:52:51.340Z,29.80
2022-10-15T03:55:39.246Z,29.25
2022-10-15T03:58:19.236Z,28.33
2022-10-15T04:01:13.346Z,29.48
2022-10-15T04:04:00.252Z,31.42
2022-10-15T04:06:34.540Z,29.92
2022-10-15T04:09:21.256Z,32.10
2022-10-15T04:12:01.292Z,28.65
2022-10-15T04:14:55.271Z,28.10
2022-10-15T04:17:49.309Z,27.38
2022-10-15T04:20:43.254Z,28.25
2022-10-15T04:23:37.266Z,26.60
2022-10-15T04:26:31.262Z,29.33
2022-10-15T04:29:18.264Z,27.98
2022-10-15T04:31:51.380Z,30.25
2022-10-15T04:34:46.255Z,26.98
2022-10-15T04:37:33.263Z,28.55
2022-10-15T04:40:06.361Z,30.90
2022-10-15T04:42:53.297Z,27.65
2022-10-15T04:45:26.361Z,28.35
2022-10-15T04:48:13.276Z,29.13
2022-10-15T04:50:53.261Z,30.85
2022-10-15T04:53:40.277Z,30.25
2022-10-15T04:56:19.171Z,32.80
2022-10-15T04:59:06.290Z,32.80
2022-10-15T05:01:39.344Z,31.90
2022-10-15T05:04:26.298Z,32.63
2022-10-15T05:07:06.281Z,35.88
2022-10-15T05:10:00.287Z,41.63
2022-10-15T05:12:49.297Z,38.42
2022-10-15T05:15:31.282Z,38.25
2022-10-15T05:18:18.291Z,36.45
2022-10-15T05:20:58.298Z,33.13
2022-10-15T05:23:45.309Z,34.88
2022-10-15T05:26:28.279Z,32.85
2022-10-15T05:29:22.352Z,40.40
2022-10-15T05:32:09.333Z,35.88
2022-10-15T05:34:42.351Z,36.00
2022-10-15T05:37:29.319Z,35.05
2022-10-15T05:40:02.740Z,35.72
2022-10-15T05:42:49.347Z,35.28
2022-10-15T05:45:22.463Z,35.63
2022-10-15T05:48:09.297Z,39.80
2022-10-15T05:50:49.305Z,32.65
2022-10-15T05:53:43.313Z,34.88
2022-10-15T05:56:37.323Z,37.42
2022-10-15T05:59:24.315Z,34.72
2022-10-15T06:01:57.409Z,38.97
2022-10-15T06:04:44.305Z,36.78
2022-10-15T06:07:24.553Z,37.70
2022-10-15T06:10:12.306Z,38.90
2022-10-15T06:12:52.302Z,39.58
2022-10-15T06:15:40.322Z,38.53
2022-10-15T06:18:22.319Z,38.63
2022-10-15T06:21:16.305Z,36.92
2022-10-15T06:24:06.285Z,37.88
2022-10-15T06:26:42.379Z,35.20
2022-10-15T06:29:29.325Z,44.80
2022-10-15T06:32:02.401Z,36.80
2022-10-15T06:34:56.311Z,36.97
2022-10-15T06:37:43.324Z,40.58
2022-10-15T06:40:17.400Z,39.72
2022-10-15T06:43:17.330Z,38.88
2022-10-15T06:45:50.400Z,38.38
2022-10-15T06:48:37.403Z,39.65
2022-10-15T06:51:11.400Z,37.30
2022-10-15T06:53:58.326Z,38.17
2022-10-15T06:56:31.441Z,35.47
2022-10-15T06:59:18.331Z,37.55
2022-10-15T07:01:58.340Z,35.42
2022-10-15T07:04:45.326Z,35.70
2022-10-15T07:07:18.402Z,35.70
2022-10-15T07:10:05.327Z,37.13
2022-10-15T07:12:38.417Z,33.95
2022-10-15T07:15:25.346Z,33.47
2022-10-15T07:18:10.341Z,33.53
2022-10-15T07:20:57.402Z,34.28
2022-10-15T07:23:37.361Z,36.28
2022-10-15T07:26:31.337Z,31.80
2022-10-15T07:29:25.361Z,30.08
2022-10-15T07:32:19.337Z,33.80
2022-10-15T07:35:13.347Z,32.05
2022-10-15T07:38:07.359Z,39.17
2022-10-15T07:40:54.370Z,29.50
2022-10-15T07:43:28.008Z,31.38
2022-10-15T07:46:14.335Z,31.63
2022-10-15T07:48:47.447Z,30.08
2022-10-15T07:51:34.339Z,32.00
2022-10-15T07:54:07.438Z,32.60
2022-10-15T07:56:54.356Z,35.45
2022-10-15T07:59:27.426Z,33.17
2022-10-15T08:02:22.704Z,30.08
2022-10-15T08:05:03.360Z,34.22
2022-10-15T08:07:58.137Z,31.90
2022-10-15T08:10:44.356Z,31.27
2022-10-15T08:13:24.377Z,29.13
2022-10-15T08:16:11.356Z,29.60
2022-10-15T08:18:45.451Z,29.38
2022-10-15T08:21:32.377Z,29.42
2022-10-15T08:24:06.000Z,31.95
2022-10-15T08:26:52.386Z,29.88
2022-10-15T08:29:25.479Z,31.65
2022-10-15T08:32:12.360Z,30.23
2022-10-15T08:34:52.388Z,29.15
2022-10-15T08:37:39.390Z,29.58
2022-10-15T08:40:20.405Z,29.50
2022-10-15T08:43:07.380Z,31.30
2022-10-15T08:45:48.925Z,28.55
2022-10-15T08:48:39.398Z,27.15
2022-10-15T08:51:17.457Z,29.58
2022-10-15T08:54:12.397Z,28.65
2022-10-15T08:56:49.467Z,26.60
2022-10-15T08:59:56.397Z,25.85
2022-10-15T09:02:54.416Z,27.38
2022-10-15T09:05:50.404Z,28.42
2022-10-15T09:08:35.459Z,27.10
2022-10-15T09:11:30.419Z,27.35
2022-10-15T09:14:04.667Z,29.45
2022-10-15T09:16:54.404Z,30.23
2022-10-15T09:19:32.511Z,29.27
2022-10-15T09:22:24.434Z,29.23
2022-10-15T09:25:04.443Z,29.98
2022-10-15T09:28:00.443Z,33.53
2022-10-15T09:31:03.423Z,26.67
2022-10-15T09:33:49.514Z,28.60
2022-10-15T09:36:48.451Z,26.92
2022-10-15T09:39:46.763Z,28.27
2022-10-15T09:42:43.456Z,26.23
2022-10-15T09:45:26.454Z,28.60
2022-10-15T09:48:31.445Z,26.42
2022-10-15T09:51:40.416Z,27.73
2022-10-15T09:54:25.491Z,25.15
2022-10-15T09:57:17.459Z,28.88
2022-10-15T10:00:01.889Z,28.65
2022-10-15T10:02:48.435Z,27.63
2022-10-15T10:05:33.552Z,25.70
2022-10-15T10:08:23.406Z,27.40
2022-10-15T10:11:15.424Z,28.60
2022-10-15T10:14:12.430Z,27.20
2022-10-15T10:17:22.447Z,25.48
2022-10-15T10:20:23.439Z,26.80
2022-10-15T10:22:57.542Z,26.38
2022-10-15T10:25:49.447Z,25.40
2022-10-15T10:28:43.502Z,24.85
2022-10-15T10:31:48.451Z,25.65
2022-10-15T10:34:24.548Z,25.35
2022-10-15T10:37:13.449Z,27.85
2022-10-15T10:39:48.522Z,26.23
2022-10-15T10:42:44.468Z,24.83
2022-10-15T10:45:30.015Z,25.35
2022-10-15T10:48:28.436Z,24.30
2022-10-15T10:51:19.037Z,24.98
2022-10-15T10:54:12.445Z,26.70
2022-10-15T10:56:56.458Z,26.52
2022-10-15T11:00:00.446Z,25.30
2022-10-15T11:02:54.474Z,26.60
2022-10-15T11:05:46.453Z,24.70
2022-10-15T11:08:31.656Z,23.90
2022-10-15T11:11:30.465Z,25.95
2022-10-15T11:14:38.530Z,27.08
2022-10-15T11:17:46.482Z,25.63
2022-10-15T11:20:36.237Z,24.15
2022-10-15T11:23:46.464Z,25.42
2022-10-15T11:27:09.608Z,25.20
2022-10-15T11:30:09.639Z,23.02
2022-10-15T11:33:19.452Z,24.45
2022-10-15T11:36:07.559Z,23.00
2022-10-15T11:39:23.470Z,24.48
2022-10-15T11:42:25.931Z,25.00
2022-10-15T11:45:29.471Z,23.42
2022-10-15T11:48:40.491Z,23.33
2022-10-15T11:51:39.541Z,26.17
2022-10-15T11:54:43.501Z,23.40
2022-10-15T11:57:28.475Z,24.98
2022-10-15T12:00:39.493Z,26.25
2022-10-15T12:03:25.558Z,25.48
2022-10-15T12:06:18.481Z,22.73
2022-10-15T12:09:01.497Z,25.40
2022-10-15T12:12:22.841Z,24.00
2022-10-15T12:15:35.507Z,23.52
2022-10-15T12:18:22.486Z,22.60
2022-10-15T12:21:16.497Z,24.40
2022-10-15T12:24:03.499Z,20.85
2022-10-15T12:26:41.567Z,20.50
2022-10-15T12:29:33.494Z,22.83
2022-10-15T12:32:06.561Z,25.45
2022-10-15T12:34:53.505Z,23.55
2022-10-15T12:37:37.510Z,23.10
2022-10-15T12:40:40.554Z,24.02
2022-10-15T12:43:34.491Z,23.20
2022-10-15T12:46:21.525Z,22.10
2022-10-15T12:48:58.198Z,21.77
2022-10-15T12:51:44.509Z,26.98
2022-10-15T12:54:44.579Z,23.38
2022-10-15T12:57:37.536Z,24.42
2022-10-15T13:00:41.595Z,35.80
2022-10-15T13:03:44.522Z,27.75
2022-10-15T13:06:33.525Z,23.83
2022-10-15T13:09:44.525Z,23.02
2022-10-15T13:12:35.515Z,21.90
2022-10-15T13:15:19.520Z,23.27
2022-10-15T13:18:21.512Z,22.98
2022-10-15T13:21:11.402Z,21.88
2022-10-15T13:23:53.594Z,23.13
2022-10-15T13:26:40.523Z,20.02
2022-10-15T13:29:28.529Z,19.60
2022-10-15T13:32:21.819Z,21.00
2022-10-15T13:34:57.465Z,20.40
2022-10-15T13:37:46.510Z,19.05
2022-10-15T13:40:34.551Z,18.30
2022-10-15T13:43:39.535Z,22.83
2022-10-15T13:46:33.564Z,19.23
2022-10-15T13:49:28.926Z,21.85
2022-10-15T13:52:22.905Z,23.40
2022-10-15T13:55:09.533Z,19.50
2022-10-15T13:57:49.570Z,19.27
2022-10-15T14:00:40.627Z,19.83
2022-10-15T14:03:25.650Z,18.25
2022-10-15T14:06:29.559Z,21.20
2022-10-15T14:09:21.042Z,19.83
2022-10-15T14:12:08.553Z,19.08
2022-10-15T14:14:46.987Z,21.67
2022-10-15T14:17:33.566Z,20.05
2022-10-15T14:20:27.576Z,21.73
2022-10-15T14:23:22.537Z,22.65
2022-10-15T14:26:00.730Z,22.58
2022-10-15T14:28:41.611Z,19.73
2022-10-15T14:31:39.564Z,22.05
2022-10-15T14:34:44.618Z,23.85
2022-10-15T14:37:43.577Z,22.90
2022-10-15T14:40:16.664Z,22.48
2022-10-15T14:43:21.613Z,26.88
2022-10-15T14:45:57.658Z,22.40
2022-10-15T14:48:45.571Z,23.08
2022-10-15T14:51:36.573Z,21.88
2022-10-15T14:54:39.567Z,22.55
2022-10-15T14:57:31.596Z,23.17
2022-10-15T15:00:05.708Z,22.40
2022-10-15T15:02:52.636Z,23.45
2022-10-15T15:06:03.574Z,23.88
2022-10-15T15:08:57.610Z,21.67
2022-10-15T15:11:44.594Z,24.02
2022-10-15T15:14:39.564Z,45.05
2022-10-15T15:17:28.587Z,37.72
2022-10-15T15:22:51.606Z,23.33
2022-10-15T15:25:41.585Z,22.83
2022-10-15T15:28:38.656Z,22.02
2022-10-15T15:31:25.586Z,22.80
2022-10-15T15:34:05.590Z,26.80
2022-10-15T15:36:52.611Z,29.05
2022-10-15T15:39:32.599Z,32.28
2022-10-15T15:42:25.863Z,33.58
2022-10-15T15:44:59.665Z,33.28
2022-10-15T15:47:46.595Z,41.13
2022-10-15T15:50:20.693Z,51.72
2022-10-15T15:53:07.602Z,61.70
2022-10-15T15:55:47.660Z,43.03
2022-10-15T15:58:41.611Z,42.38
2022-10-15T16:01:35.650Z,47.45
2022-10-15T16:04:22.609Z,47.78
2022-10-15T16:06:55.677Z,53.47
2022-10-15T16:09:42.633Z,59.10
2022-10-15T16:12:15.746Z,41.67
2022-10-15T16:15:02.626Z,49.53
2022-10-15T16:17:35.771Z,46.45
2022-10-15T16:20:22.608Z,43.63
2022-10-15T16:22:57.736Z,50.60
2022-10-15T16:25:44.610Z,39.42
2022-10-15T16:28:17.720Z,40.90
2022-10-15T16:31:39.621Z,37.90
2022-10-15T16:34:19.635Z,35.42
2022-10-15T16:37:13.625Z,34.42
2022-10-15T16:40:07.709Z,35.15
2022-10-15T16:42:54.629Z,35.45
2022-10-15T16:45:27.686Z,27.95
2022-10-15T16:48:14.641Z,29.33
2022-10-15T16:50:47.762Z,29.40
2022-10-15T16:53:34.648Z,27.08
2022-10-15T16:56:16.781Z,29.88
2022-10-15T16:59:03.635Z,37.35
2022-10-15T17:01:36.997Z,47.70
2022-10-15T17:04:23.637Z,66.20
2022-10-15T17:07:03.648Z,54.20
2022-10-15T17:09:57.649Z,52.60
2022-10-15T17:12:44.584Z,38.58
2022-10-15T17:15:24.658Z,36.28
2022-10-15T17:18:18.628Z,31.00
2022-10-15T17:21:12.645Z,34.25
2022-10-15T17:24:01.631Z,32.33
2022-10-15T17:26:44.659Z,31.73
2022-10-15T17:29:38.657Z,31.58
2022-10-15T17:32:25.916Z,36.70
2022-10-15T17:35:03.793Z,33.80
2022-10-15T17:37:51.643Z,33.13
2022-10-15T17:40:24.765Z,36.90
2022-10-15T17:43:11.649Z,38.15
2022-10-15T17:45:44.733Z,44.67
2022-10-15T17:48:31.660Z,41.58
2022-10-15T17:51:08.767Z,50.85
2022-10-15T17:53:57.661Z,60.53
2022-10-15T17:56:36.790Z,53.40
2022-10-15T17:59:23.675Z,55.53
2022-10-15T18:02:04.743Z,54.83
2022-10-15T18:04:58.650Z,58.72
2022-10-15T18:07:52.674Z,43.70
2022-10-15T18:10:49.679Z,34.85
2022-10-15T18:13:36.684Z,33.38
2022-10-15T18:16:09.758Z,33.65
2022-10-15T18:18:56.707Z,36.25
2022-10-15T18:21:31.738Z,34.28
2022-10-15T18:24:18.658Z,31.80
2022-10-15T18:27:01.680Z,32.53
2022-10-15T18:29:55.683Z,31.08
2022-10-15T18:32:42.693Z,35.13
2022-10-15T18:35:15.738Z,32.17
2022-10-15T18:38:02.700Z,30.73
2022-10-15T18:40:46.706Z,29.83
2022-10-15T18:43:40.678Z,32.03
2022-10-15T18:46:27.685Z,35.47
2022-10-15T18:49:08.685Z,32.05
2022-10-15T18:52:06.405Z,37.15
2022-10-15T18:54:48.797Z,30.48
2022-10-15T18:57:35.693Z,35.90
2022-10-15T19:00:15.764Z,35.42
2022-10-15T19:03:09.671Z,33.20
2022-10-15T19:05:57.697Z,36.92
2022-10-15T19:08:31.166Z,33.90
2022-10-15T19:11:17.696Z,39.33
2022-10-15T19:13:50.759Z,40.35
2022-10-15T19:16:37.700Z,38.80
2022-10-15T19:19:12.545Z,35.33
2022-10-15T19:21:59.703Z,39.15
2022-10-15T19:24:32.785Z,30.95
2022-10-15T19:27:19.702Z,32.15
2022-10-15T19:29:59.715Z,33.45
2022-10-15T19:32:53.695Z,33.40
2022-10-15T19:35:56.702Z,34.45
2022-10-15T19:38:43.713Z,39.05
2022-10-15T19:41:16.779Z,39.63
2022-10-15T19:44:03.720Z,40.20
2022-10-15T19:46:43.718Z,36.05
2022-10-15T19:49:39.151Z,36.05
2022-10-15T19:52:35.239Z,31.20
2022-10-15T19:55:21.718Z,31.55
2022-10-15T19:57:55.837Z,34.65
2022-10-15T20:00:42.712Z,35.05
2022-10-15T20:03:22.769Z,42.00
2022-10-15T20:06:13.721Z,46.50
2022-10-15T20:08:46.847Z,41.38
2022-10-15T20:11:33.718Z,41.30
2022-10-15T20:14:13.717Z,40.10
2022-10-15T20:17:00.739Z,36.60
2022-10-15T20:19:33.801Z,30.05
2022-10-15T20:22:20.754Z,33.20
2022-10-15T20:25:03.739Z,31.65
2022-10-15T20:27:50.721Z,29.70
2022-10-15T20:30:23.827Z,37.63
2022-10-15T20:33:26.727Z,43.65
2022-10-15T20:36:23.870Z,45.47
2022-10-15T20:39:17.735Z,41.67
2022-10-15T20:42:04.756Z,38.17
2022-10-15T20:44:47.740Z,41.65
2022-10-15T20:47:41.732Z,39.30
2022-10-15T20:50:34.741Z,36.60
2022-10-15T20:53:15.741Z,38.83
2022-10-15T20:56:09.741Z,38.10
2022-10-15T20:58:56.751Z,42.70
2022-10-15T21:01:29.865Z,38.83
2022-10-15T21:04:16.745Z,39.67
2022-10-15T21:06:56.745Z,39.92
2022-10-15T21:09:43.749Z,38.80
2022-10-15T21:12:24.956Z,39.25
2022-10-15T21:15:11.766Z,37.42
2022-10-15T21:17:44.828Z,46.53
2022-10-15T21:20:33.761Z,35.00
2022-10-15T21:23:06.819Z,41.95
2022-10-15T21:25:53.736Z,44.85
2022-10-15T21:28:33.837Z,51.65
2022-10-15T21:31:23.743Z,52.10
2022-10-15T21:34:03.779Z,52.00
2022-10-15T21:36:50.776Z,51.58
2022-10-15T21:39:30.744Z,45.97
2022-10-15T21:42:24.761Z,49.05
2022-10-15T21:45:18.746Z,47.40
2022-10-15T21:48:12.759Z,43.97
2022-10-15T21:50:59.772Z,44.03
2022-10-15T21:53:32.954Z,38.50
2022-10-15T21:56:19.783Z,34.15
2022-10-15T21:58:54.428Z,35.55
2022-10-15T22:01:42.847Z,37.20
2022-10-15T22:04:24.769Z,32.85
2022-10-15T22:07:18.788Z,39.45
2022-10-15T22:10:05.768Z,37.15
2022-10-15T22:12:38.913Z,36.00
2022-10-15T22:15:25.782Z,35.88
2022-10-15T22:17:58.849Z,38.28
2022-10-15T22:20:45.788Z,39.13
2022-10-15T22:23:27.772Z,42.88
2022-10-15T22:26:21.809Z,40.35
2022-10-15T22:29:17.806Z,38.13
2022-10-15T22:32:11.810Z,37.58
2022-10-15T22:35:05.775Z,38.15
2022-10-15T22:37:52.768Z,33.67
2022-10-15T22:40:32.788Z,38.33
2022-10-15T22:43:26.782Z,34.47
2022-10-15T22:46:13.790Z,39.22
2022-10-15T22:48:53.623Z,42.53
2022-10-15T22:51:40.820Z,41.30
2022-10-15T22:54:13.889Z,38.40
2022-10-15T22:57:00.790Z,38.60
2022-10-15T22:59:33.921Z,33.08
2022-10-15T23:02:21.789Z,30.70
2022-10-15T23:04:54.887Z,32.30
2022-10-15T23:07:41.804Z,32.60
2022-10-15T23:10:15.897Z,35.80
2022-10-15T23:13:02.815Z,31.02
2022-10-15T23:15:35.867Z,30.17
2022-10-15T23:18:22.820Z,30.30
2022-10-15T23:21:02.819Z,30.98
2022-10-15T23:23:57.801Z,28.67
2022-10-15T23:26:52.822Z,32.05
2022-10-15T23:29:39.814Z,29.15
2022-10-15T23:32:12.885Z,27.30
2022-10-15T23:35:06.796Z,29.52
2022-10-15T23:37:53.877Z,29.42
2022-10-15T23:40:26.907Z,29.23
2022-10-15T23:43:13.816Z,33.67
2022-10-15T23:45:47.891Z,28.50
2022-10-15T23:48:34.817Z,26.98
2022-10-15T23:51:14.823Z,27.70
2022-10-15T23:54:10.857Z,27.25
2022-10-15T23:56:57.853Z,27.30
2022-10-15T23:59:37.824Z,28.60
